createdAt,value
2017-04-27T00:01:25.463Z,26.25
2017-04-27T00:03:53.411Z,27.38
2017-04-27T00:06:21.340Z,26.25
2017-04-27T00:08:49.672Z,27.02
2017-04-27T00:11:17.575Z,24.53
2017-04-27T00:13:45.552Z,27.12
2017-04-27T00:16:13.511Z,27.10
2017-04-27T00:18:41.051Z,28.08
2017-04-27T00:21:08.991Z,29.07
2017-04-27T00:23:36.959Z,29.25
2017-04-27T00:26:04.896Z,27.45
2017-04-27T00:28:33.213Z,27.93
2017-04-27T00:31:01.172Z,28.03
2017-04-27T00:33:29.111Z,26.72
2017-04-27T00:35:57.423Z,26.08
2017-04-27T00:38:24.990Z,29.53
2017-04-27T00:40:52.924Z,28.13
2017-04-27T00:43:21.235Z,29.50
2017-04-27T00:45:49.195Z,28.35
2017-04-27T00:48:17.135Z,28.12
2017-04-27T00:50:45.095Z,29.60
2017-04-27T00:53:12.653Z,29.92
2017-04-27T00:55:40.592Z,30.12
2017-04-27T00:58:08.537Z,28.08
2017-04-27T01:00:36.498Z,27.35
2017-04-27T01:03:04.431Z,26.68
2017-04-27T01:05:32.374Z,27.73
2017-04-27T01:08:00.339Z,28.92
2017-04-27T01:10:28.283Z,28.43
2017-04-27T01:12:56.230Z,28.53
2017-04-27T01:15:24.563Z,25.03
2017-04-27T01:17:52.512Z,27.63
2017-04-27T01:20:20.057Z,26.95
2017-04-27T01:22:48.023Z,28.62
2017-04-27T01:25:15.577Z,25.43
2017-04-27T01:27:43.116Z,24.87
2017-04-27T01:30:11.085Z,25.57
2017-04-27T01:32:39.025Z,25.17
2017-04-27T01:35:06.968Z,26.20
2017-04-27T01:37:34.932Z,25.35
2017-04-27T01:40:02.873Z,24.27
2017-04-27T01:42:30.816Z,24.70
2017-04-27T01:44:58.801Z,25.02
2017-04-27T01:47:26.735Z,26.37
2017-04-27T01:49:54.290Z,26.78
2017-04-27T01:52:21.861Z,26.67
2017-04-27T01:54:49.774Z,27.28
2017-04-27T01:57:17.756Z,26.00
2017-04-27T01:59:46.097Z,23.92
2017-04-27T02:02:14.041Z,24.38
2017-04-27T02:04:41.977Z,25.48
2017-04-27T02:07:09.539Z,24.30
2017-04-27T02:09:37.481Z,25.47
2017-04-27T02:12:05.423Z,23.70
2017-04-27T02:14:32.989Z,23.77
2017-04-27T02:17:00.928Z,24.03
2017-04-27T02:19:28.529Z,23.60
2017-04-27T02:21:56.488Z,23.87
2017-04-27T02:24:24.437Z,23.87
2017-04-27T02:26:51.981Z,23.97
2017-04-27T02:29:19.548Z,23.13
2017-04-27T02:31:47.484Z,24.02
2017-04-27T02:34:15.032Z,24.58
2017-04-27T02:36:43.013Z,23.38
2017-04-27T02:39:10.944Z,24.23
2017-04-27T02:41:38.517Z,25.77
2017-04-27T02:44:06.479Z,22.60
2017-04-27T02:46:34.149Z,26.67
2017-04-27T02:49:02.089Z,24.60
2017-04-27T02:51:29.656Z,24.43
2017-04-27T02:53:57.600Z,24.17
2017-04-27T02:56:25.904Z,23.70
2017-04-27T02:58:53.873Z,23.63
2017-04-27T03:01:21.826Z,23.43
2017-04-27T03:03:50.129Z,24.15
2017-04-27T03:06:18.083Z,23.32
2017-04-27T03:08:46.029Z,23.57
2017-04-27T03:11:14.340Z,24.58
2017-04-27T03:13:42.276Z,24.55
2017-04-27T03:16:10.257Z,23.22
2017-04-27T03:18:38.573Z,22.88
2017-04-27T03:21:06.140Z,23.88
2017-04-27T03:23:34.092Z,22.32
2017-04-27T03:26:02.030Z,23.08
2017-04-27T03:28:30.361Z,22.47
2017-04-27T03:30:58.308Z,22.78
2017-04-27T03:33:26.286Z,21.97
2017-04-27T03:35:53.851Z,21.88
2017-04-27T03:38:21.401Z,23.53
2017-04-27T03:40:49.358Z,23.28
2017-04-27T03:43:17.319Z,22.40
2017-04-27T03:45:45.630Z,22.87
2017-04-27T03:48:13.584Z,22.72
2017-04-27T03:50:41.552Z,22.62
2017-04-27T03:53:09.492Z,22.23
2017-04-27T03:55:37.799Z,21.92
2017-04-27T03:58:05.769Z,23.55
2017-04-27T04:00:33.720Z,21.87
2017-04-27T04:03:01.268Z,21.62
2017-04-27T04:05:29.268Z,23.02
2017-04-27T04:07:57.573Z,21.58
2017-04-27T04:10:25.116Z,23.15
2017-04-27T04:12:53.089Z,22.73
2017-04-27T04:15:21.024Z,23.27
2017-04-27T04:17:49.330Z,23.35
2017-04-27T04:20:17.294Z,22.68
2017-04-27T04:22:45.232Z,22.95
2017-04-27T04:25:13.167Z,24.40
2017-04-27T04:27:41.133Z,24.90
2017-04-27T04:30:09.069Z,23.33
2017-04-27T04:32:37.377Z,22.77
2017-04-27T04:35:05.328Z,23.95
2017-04-27T04:37:33.278Z,25.70
2017-04-27T04:40:01.613Z,25.15
2017-04-27T04:42:29.573Z,24.28
2017-04-27T04:44:57.520Z,23.22
2017-04-27T04:47:25.460Z,22.33
2017-04-27T04:49:54.103Z,25.50
2017-04-27T04:52:22.057Z,27.15
2017-04-27T04:54:49.604Z,24.53
2017-04-27T04:57:17.589Z,24.18
2017-04-27T04:59:45.524Z,25.67
2017-04-27T05:02:13.857Z,26.17
2017-04-27T05:04:41.821Z,24.75
2017-04-27T05:07:09.756Z,25.25
2017-04-27T05:09:37.329Z,27.97
2017-04-27T05:12:04.874Z,26.23
2017-04-27T05:14:32.812Z,26.70
2017-04-27T05:17:00.380Z,24.57
2017-04-27T05:19:27.919Z,25.75
2017-04-27T05:21:55.880Z,25.20
2017-04-27T05:24:23.845Z,27.73
2017-04-27T05:26:51.388Z,24.15
2017-04-27T05:29:19.321Z,26.70
2017-04-27T05:31:46.883Z,26.20
2017-04-27T05:34:15.193Z,24.87
2017-04-27T05:36:43.132Z,23.63
2017-04-27T05:39:11.475Z,24.00
2017-04-27T05:41:39.412Z,24.82
2017-04-27T05:44:07.352Z,23.87
2017-04-27T05:46:35.333Z,25.10
2017-04-27T05:49:03.637Z,21.00
2017-04-27T05:51:31.577Z,25.43
2017-04-27T05:53:59.917Z,23.67
2017-04-27T05:56:27.860Z,24.43
2017-04-27T05:58:55.792Z,22.15
2017-04-27T06:01:23.368Z,22.53
2017-04-27T06:03:51.314Z,20.97
2017-04-27T06:06:19.256Z,22.77
2017-04-27T06:08:47.233Z,20.20
2017-04-27T06:11:15.167Z,19.05
2017-04-27T06:13:43.118Z,19.95
2017-04-27T06:16:11.080Z,21.00
2017-04-27T06:18:38.637Z,20.60
2017-04-27T06:21:06.948Z,22.28
2017-04-27T06:23:34.915Z,21.62
2017-04-27T06:26:02.849Z,23.72
2017-04-27T06:28:31.164Z,23.03
2017-04-27T06:30:59.159Z,24.70
2017-04-27T06:33:27.108Z,21.07
2017-04-27T06:35:55.058Z,19.90
2017-04-27T06:38:23.020Z,20.92
2017-04-27T06:40:50.955Z,21.70
2017-04-27T06:43:18.899Z,21.60
2017-04-27T06:45:46.869Z,20.70
2017-04-27T06:48:14.821Z,22.07
2017-04-27T06:50:42.383Z,23.03
2017-04-27T06:53:10.345Z,21.72
2017-04-27T06:55:37.896Z,21.98
2017-04-27T06:58:05.827Z,22.73
2017-04-27T07:00:33.799Z,20.87
2017-04-27T07:03:05.584Z,22.52
2017-04-27T07:05:33.921Z,22.67
2017-04-27T07:08:01.893Z,22.25
2017-04-27T07:10:29.844Z,22.47
2017-04-27T07:12:57.384Z,22.88
2017-04-27T07:15:25.340Z,22.77
2017-04-27T07:17:53.652Z,24.68
2017-04-27T07:20:21.191Z,22.60
2017-04-27T07:22:49.161Z,23.13
2017-04-27T07:25:16.699Z,22.67
2017-04-27T07:27:45.016Z,23.52
2017-04-27T07:30:12.594Z,21.90
2017-04-27T07:32:40.139Z,22.65
2017-04-27T07:35:08.077Z,21.12
2017-04-27T07:37:36.412Z,23.25
2017-04-27T07:40:04.317Z,23.08
2017-04-27T07:42:32.288Z,22.67
2017-04-27T07:45:00.256Z,21.35
2017-04-27T07:47:28.559Z,21.07
2017-04-27T07:49:56.917Z,21.05
2017-04-27T07:52:25.259Z,20.58
2017-04-27T07:54:53.200Z,22.32
2017-04-27T07:57:21.132Z,22.35
2017-04-27T07:59:49.465Z,22.30
2017-04-27T08:02:17.464Z,21.28
2017-04-27T08:04:45.004Z,20.07
2017-04-27T08:07:12.968Z,21.55
2017-04-27T08:09:40.912Z,22.53
2017-04-27T08:12:08.855Z,21.87
2017-04-27T08:14:37.185Z,21.07
2017-04-27T08:17:05.124Z,20.73
2017-04-27T08:19:32.659Z,21.67
2017-04-27T08:22:00.232Z,19.63
2017-04-27T08:24:28.595Z,20.63
2017-04-27T08:26:56.909Z,20.02
2017-04-27T08:29:24.484Z,22.10
2017-04-27T08:31:52.411Z,22.35
2017-04-27T08:34:20.725Z,23.00
2017-04-27T08:36:48.683Z,22.82
2017-04-27T08:39:16.633Z,21.85
2017-04-27T08:41:44.943Z,22.90
2017-04-27T08:44:12.928Z,22.75
2017-04-27T08:46:40.467Z,21.67
2017-04-27T08:49:08.445Z,23.12
2017-04-27T08:51:36.002Z,21.53
2017-04-27T08:54:03.945Z,21.22
2017-04-27T08:56:31.912Z,22.02
2017-04-27T08:59:00.233Z,22.45
2017-04-27T09:01:28.185Z,21.10
2017-04-27T09:03:56.212Z,21.93
2017-04-27T09:06:24.164Z,18.45
2017-04-27T09:08:52.104Z,21.78
2017-04-27T09:11:20.073Z,21.50
2017-04-27T09:13:48.016Z,20.62
2017-04-27T09:16:15.961Z,20.50
2017-04-27T09:18:43.540Z,20.93
2017-04-27T09:21:11.866Z,21.47
2017-04-27T09:23:39.796Z,22.47
2017-04-27T09:26:07.391Z,22.58
2017-04-27T09:28:35.336Z,21.62
2017-04-27T09:31:02.884Z,20.15
2017-04-27T09:33:31.232Z,23.00
2017-04-27T09:35:59.200Z,19.47
2017-04-27T09:38:27.146Z,21.52
2017-04-27T09:40:55.084Z,22.85
2017-04-27T09:43:23.056Z,20.77
2017-04-27T09:45:50.604Z,22.03
2017-04-27T09:48:18.921Z,19.65
2017-04-27T09:50:46.888Z,19.47
2017-04-27T09:53:14.840Z,20.50
2017-04-27T09:55:42.788Z,22.32
2017-04-27T09:58:11.131Z,20.05
2017-04-27T10:00:39.080Z,19.52
2017-04-27T10:03:06.632Z,22.38
2017-04-27T10:05:34.600Z,22.87
2017-04-27T10:08:02.543Z,20.82
2017-04-27T10:10:30.093Z,20.68
2017-04-27T10:12:58.436Z,19.03
2017-04-27T10:15:26.379Z,19.65
2017-04-27T10:17:53.929Z,19.20
2017-04-27T10:20:21.905Z,20.42
2017-04-27T10:22:49.851Z,20.53
2017-04-27T10:25:17.812Z,19.07
2017-04-27T10:27:45.389Z,18.65
2017-04-27T10:30:12.939Z,20.38
2017-04-27T10:32:40.491Z,19.45
2017-04-27T10:35:08.065Z,20.68
2017-04-27T10:37:36.381Z,16.28
2017-04-27T10:40:03.949Z,15.92
2017-04-27T10:42:31.523Z,16.97
2017-04-27T10:44:59.477Z,17.27
2017-04-27T10:47:27.425Z,16.20
2017-04-27T10:49:55.391Z,18.15
2017-04-27T10:52:23.328Z,16.52
2017-04-27T10:54:51.275Z,16.30
2017-04-27T10:57:19.244Z,15.18
2017-04-27T10:59:47.176Z,16.96
2017-04-27T11:02:15.120Z,17.26
2017-04-27T11:04:42.684Z,16.18
2017-04-27T11:07:10.999Z,16.88
2017-04-27T11:09:38.944Z,16.32
2017-04-27T11:12:06.921Z,17.05
2017-04-27T11:14:35.231Z,14.78
2017-04-27T11:17:03.164Z,15.22
2017-04-27T11:19:31.500Z,15.90
2017-04-27T11:21:59.441Z,14.38
2017-04-27T11:24:27.380Z,16.30
2017-04-27T11:26:55.335Z,14.10
2017-04-27T11:29:23.312Z,15.00
2017-04-27T11:31:51.247Z,14.88
2017-04-27T11:34:19.212Z,14.22
2017-04-27T11:36:49.527Z,13.98
2017-04-27T11:39:15.120Z,15.10
2017-04-27T11:41:42.693Z,13.74
2017-04-27T11:44:10.658Z,15.44
2017-04-27T11:46:38.944Z,15.50
2017-04-27T11:49:06.910Z,15.84
2017-04-27T11:51:34.459Z,14.34
2017-04-27T11:54:02.400Z,13.14
2017-04-27T11:56:30.360Z,13.48
2017-04-27T11:58:58.295Z,14.14
2017-04-27T12:01:26.240Z,13.54
2017-04-27T12:03:54.188Z,15.86
2017-04-27T12:06:22.505Z,14.78
2017-04-27T12:08:50.440Z,15.32
2017-04-27T12:11:18.025Z,13.08
2017-04-27T12:13:45.965Z,13.68
2017-04-27T12:16:14.316Z,13.76
2017-04-27T12:18:42.256Z,14.62
2017-04-27T12:21:10.212Z,12.68
2017-04-27T12:23:38.161Z,12.82
2017-04-27T12:26:05.731Z,12.50
2017-04-27T12:28:33.704Z,11.94
2017-04-27T12:31:01.614Z,11.60
2017-04-27T12:33:29.995Z,10.90
2017-04-27T12:35:57.947Z,12.02
2017-04-27T12:38:25.880Z,11.72
2017-04-27T12:40:53.443Z,12.76
2017-04-27T12:43:21.752Z,10.20
2017-04-27T12:45:49.695Z,10.28
2017-04-27T12:48:18.026Z,9.52
2017-04-27T12:50:45.959Z,10.30
2017-04-27T12:53:13.895Z,11.02
2017-04-27T12:55:41.998Z,10.62
2017-04-27T12:58:09.531Z,10.80
2017-04-27T13:00:37.067Z,10.28
2017-04-27T13:03:05.089Z,11.28
2017-04-27T13:05:33.032Z,11.68
2017-04-27T13:08:00.963Z,11.26
2017-04-27T13:10:28.932Z,11.84
2017-04-27T13:12:56.872Z,11.82
2017-04-27T13:15:24.407Z,12.32
2017-04-27T13:17:52.739Z,13.48
2017-04-27T13:20:20.680Z,12.24
2017-04-27T13:22:48.619Z,12.68
2017-04-27T13:25:17.296Z,11.00
2017-04-27T13:27:45.223Z,13.36
2017-04-27T13:30:14.269Z,13.06
2017-04-27T13:32:42.221Z,12.94
2017-04-27T13:35:10.160Z,15.84
2017-04-27T13:37:38.093Z,13.42
2017-04-27T13:40:06.056Z,12.26
2017-04-27T13:42:34.355Z,13.66
2017-04-27T13:45:01.891Z,12.24
2017-04-27T13:47:30.228Z,12.88
2017-04-27T13:49:58.165Z,12.00
2017-04-27T13:52:25.707Z,12.28
2017-04-27T13:54:54.048Z,12.76
2017-04-27T13:57:21.988Z,13.38
2017-04-27T13:59:49.928Z,14.54
2017-04-27T14:02:17.498Z,14.28
2017-04-27T14:04:45.778Z,13.64
2017-04-27T14:07:13.373Z,13.28
2017-04-27T14:09:40.957Z,14.74
2017-04-27T14:12:08.901Z,13.98
2017-04-27T14:14:36.837Z,12.66
2017-04-27T14:17:05.475Z,12.94
2017-04-27T14:19:33.417Z,13.70
2017-04-27T14:22:01.355Z,13.50
2017-04-27T14:24:29.679Z,13.40
2017-04-27T14:26:57.644Z,14.42
2017-04-27T14:29:25.573Z,14.36
2017-04-27T14:31:53.912Z,14.20
2017-04-27T14:34:21.880Z,13.36
2017-04-27T14:36:49.852Z,16.00
2017-04-27T14:39:17.844Z,13.54
2017-04-27T14:41:45.449Z,13.54
2017-04-27T14:44:13.385Z,12.78
2017-04-27T14:46:41.345Z,15.06
2017-04-27T14:49:09.305Z,14.84
2017-04-27T14:51:37.248Z,13.96
2017-04-27T14:54:05.206Z,13.70
2017-04-27T14:56:33.172Z,13.08
2017-04-27T14:59:01.129Z,12.60
2017-04-27T15:01:29.072Z,12.92
2017-04-27T15:03:57.041Z,13.76
2017-04-27T15:06:24.972Z,14.46
2017-04-27T15:08:52.517Z,12.94
2017-04-27T15:11:20.087Z,14.52
2017-04-27T15:13:47.992Z,13.20
2017-04-27T15:16:15.969Z,14.30
2017-04-27T15:18:43.936Z,13.72
2017-04-27T15:21:11.907Z,15.54
2017-04-27T15:23:39.869Z,13.38
2017-04-27T15:26:07.812Z,14.18
2017-04-27T15:28:35.769Z,13.76
2017-04-27T15:31:03.724Z,14.60
2017-04-27T15:33:31.660Z,14.62
2017-04-27T15:35:59.617Z,16.94
2017-04-27T15:38:27.581Z,14.72
2017-04-27T15:40:55.549Z,13.42
2017-04-27T15:43:23.522Z,13.86
2017-04-27T15:45:51.485Z,14.30
2017-04-27T15:48:19.441Z,13.82
2017-04-27T15:50:47.383Z,15.24
2017-04-27T15:53:15.715Z,13.88
2017-04-27T15:55:43.647Z,13.94
2017-04-27T15:58:11.592Z,14.26
2017-04-27T16:00:39.170Z,14.94
2017-04-27T16:03:06.717Z,14.82
2017-04-27T16:05:35.016Z,14.26
2017-04-27T16:08:03.010Z,13.78
2017-04-27T16:10:30.980Z,14.90
2017-04-27T16:12:58.926Z,15.08
2017-04-27T16:15:26.493Z,13.16
2017-04-27T16:17:54.469Z,13.54
2017-04-27T16:20:22.405Z,14.06
2017-04-27T16:22:50.719Z,15.44
2017-04-27T16:25:18.672Z,13.58
2017-04-27T16:27:46.603Z,14.82
2017-04-27T16:30:14.152Z,14.80
2017-04-27T16:32:42.120Z,14.30
2017-04-27T16:35:10.051Z,14.40
2017-04-27T16:37:37.988Z,13.48
2017-04-27T16:40:06.315Z,16.22
2017-04-27T16:42:33.846Z,14.76
2017-04-27T16:45:01.795Z,14.76
2017-04-27T16:47:30.124Z,14.38
2017-04-27T16:49:58.069Z,14.24
2017-04-27T16:52:26.035Z,14.44
2017-04-27T16:54:53.608Z,14.54
2017-04-27T16:57:21.573Z,14.68
2017-04-27T16:59:49.527Z,14.76
2017-04-27T17:02:17.893Z,15.00
2017-04-27T17:04:45.444Z,16.24
2017-04-27T17:07:13.391Z,15.54
2017-04-27T17:09:41.450Z,14.68
2017-04-27T17:12:09.417Z,13.38
2017-04-27T17:14:36.963Z,15.58
2017-04-27T17:17:04.518Z,15.72
2017-04-27T17:19:32.782Z,15.94
2017-04-27T17:22:00.771Z,15.64
2017-04-27T17:24:28.520Z,13.92
2017-04-27T17:26:56.741Z,14.40
2017-04-27T17:29:24.967Z,14.12
2017-04-27T17:31:52.933Z,14.60
2017-04-27T17:34:21.400Z,16.68
2017-04-27T17:36:49.836Z,14.82
2017-04-27T17:39:18.267Z,16.06
2017-04-27T17:41:46.648Z,14.02
2017-04-27T17:44:15.178Z,13.44
2017-04-27T17:46:43.801Z,12.76
2017-04-27T17:49:12.458Z,14.44
2017-04-27T17:51:41.267Z,14.00
2017-04-27T17:54:10.178Z,15.26
2017-04-27T17:56:39.226Z,14.94
2017-04-27T17:59:07.736Z,16.16
2017-04-27T18:01:36.693Z,15.24
2017-04-27T18:04:06.055Z,14.80
2017-04-27T18:06:35.000Z,15.12
2017-04-27T18:09:03.622Z,16.68
2017-04-27T18:11:32.700Z,14.76
2017-04-27T18:14:01.710Z,15.70
2017-04-27T18:16:30.622Z,16.00
2017-04-27T18:18:59.621Z,16.42
2017-04-27T18:21:28.642Z,15.80
2017-04-27T18:23:57.263Z,15.34
2017-04-27T18:26:26.699Z,16.70
2017-04-27T18:28:55.660Z,14.96
2017-04-27T18:31:24.619Z,14.56
2017-04-27T18:33:54.083Z,13.86
2017-04-27T18:36:22.622Z,15.40
2017-04-27T18:38:52.002Z,15.22
2017-04-27T18:41:21.101Z,17.00
2017-04-27T18:43:50.901Z,15.94
2017-04-27T18:46:19.912Z,15.30
2017-04-27T18:48:49.169Z,15.06
2017-04-27T18:51:17.728Z,15.04
2017-04-27T18:53:46.659Z,16.40
2017-04-27T18:56:15.792Z,14.72
2017-04-27T18:58:44.310Z,15.02
2017-04-27T19:01:13.315Z,15.42
2017-04-27T19:03:42.385Z,16.46
2017-04-27T19:06:11.512Z,15.14
2017-04-27T19:08:41.076Z,17.62
2017-04-27T19:11:10.494Z,15.80
2017-04-27T19:13:39.578Z,14.96
2017-04-27T19:16:09.254Z,15.98
2017-04-27T19:18:38.239Z,14.42
2017-04-27T19:21:07.218Z,15.56
2017-04-27T19:23:37.077Z,14.86
2017-04-27T19:26:06.433Z,16.82
2017-04-27T19:28:35.882Z,17.43
2017-04-27T19:31:05.192Z,17.12
2017-04-27T19:33:34.572Z,17.58
2017-04-27T19:36:03.954Z,16.26
2017-04-27T19:38:33.316Z,17.42
2017-04-27T19:41:02.619Z,15.80
2017-04-27T19:43:32.303Z,17.70
2017-04-27T19:46:01.166Z,16.83
2017-04-27T19:48:30.467Z,16.16
2017-04-27T19:50:59.371Z,17.22
2017-04-27T19:53:28.703Z,18.00
2017-04-27T19:55:58.203Z,16.52
2017-04-27T19:58:27.176Z,17.62
2017-04-27T20:00:56.319Z,16.80
2017-04-27T20:03:25.419Z,15.36
2017-04-27T20:05:55.149Z,16.98
2017-04-27T20:08:24.217Z,17.64
2017-04-27T20:10:53.537Z,15.98
2017-04-27T20:13:22.521Z,18.38
2017-04-27T20:15:51.678Z,16.26
2017-04-27T20:18:20.696Z,16.64
2017-04-27T20:20:50.037Z,16.40
2017-04-27T20:23:19.086Z,16.88
2017-04-27T20:25:48.976Z,16.10
2017-04-27T20:28:18.796Z,16.72
2017-04-27T20:30:47.861Z,16.62
2017-04-27T20:33:16.410Z,18.22
2017-04-27T20:35:45.726Z,18.04
2017-04-27T20:38:14.432Z,18.18
2017-04-27T20:40:43.387Z,17.54
2017-04-27T20:43:12.032Z,17.18
2017-04-27T20:45:41.095Z,17.72
2017-04-27T20:48:09.642Z,17.92
2017-04-27T20:50:38.621Z,18.66
2017-04-27T20:53:07.639Z,18.34
2017-04-27T20:55:36.206Z,16.54
2017-04-27T20:58:04.998Z,18.94
2017-04-27T21:00:34.083Z,19.06
2017-04-27T21:03:02.864Z,19.78
2017-04-27T21:05:31.372Z,20.30
2017-04-27T21:07:59.966Z,19.38
2017-04-27T21:10:28.133Z,18.80
2017-04-27T21:12:55.860Z,21.84
2017-04-27T21:15:23.461Z,20.82
2017-04-27T21:17:51.009Z,19.97
2017-04-27T21:20:19.340Z,19.64
2017-04-27T21:22:47.308Z,20.02
2017-04-27T21:25:14.881Z,20.92
2017-04-27T21:27:42.819Z,19.94
2017-04-27T21:30:10.800Z,21.55
2017-04-27T21:32:38.761Z,21.70
2017-04-27T21:35:06.707Z,19.84
2017-04-27T21:37:34.640Z,19.52
2017-04-27T21:40:02.616Z,17.52
2017-04-27T21:42:30.554Z,19.00
2017-04-27T21:44:58.532Z,17.68
2017-04-27T21:47:26.495Z,17.70
2017-04-27T21:49:54.442Z,17.50
2017-04-27T21:52:22.387Z,19.40
2017-04-27T21:54:50.728Z,18.45
2017-04-27T21:57:18.667Z,18.74
2017-04-27T21:59:46.630Z,20.23
2017-04-27T22:02:14.599Z,19.37
2017-04-27T22:04:42.551Z,18.80
2017-04-27T22:07:10.095Z,17.05
2017-04-27T22:09:38.068Z,11.82
2017-04-27T22:12:05.636Z,12.17
2017-04-27T22:14:34.172Z,14.98
2017-04-27T22:17:02.158Z,12.72
2017-04-27T22:19:30.099Z,12.15
2017-04-27T22:21:58.044Z,12.18
2017-04-27T22:24:26.353Z,11.97
2017-04-27T22:26:54.312Z,12.03
2017-04-27T22:29:21.862Z,12.12
2017-04-27T22:31:49.431Z,12.05
2017-04-27T22:34:17.400Z,12.48
2017-04-27T22:36:45.339Z,14.20
2017-04-27T22:39:13.288Z,12.92
2017-04-27T22:41:41.251Z,13.03
2017-04-27T22:44:09.192Z,13.35
2017-04-27T22:46:36.743Z,14.28
2017-04-27T22:49:04.720Z,15.07
2017-04-27T22:51:32.652Z,13.90
2017-04-27T22:54:00.972Z,15.53
2017-04-27T22:56:28.931Z,14.52
2017-04-27T22:58:56.875Z,13.90
2017-04-27T23:01:25.185Z,13.33
2017-04-27T23:03:52.757Z,13.32
2017-04-27T23:06:20.301Z,14.62
2017-04-27T23:08:48.246Z,13.50
2017-04-27T23:11:16.200Z,15.02
2017-04-27T23:13:44.152Z,13.47
2017-04-27T23:16:12.094Z,15.13
2017-04-27T23:18:40.066Z,14.73
2017-04-27T23:21:08.004Z,15.27
2017-04-27T23:23:35.948Z,15.22
2017-04-27T23:26:03.924Z,16.45
2017-04-27T23:28:31.863Z,14.98
2017-04-27T23:30:59.799Z,15.02
2017-04-27T23:33:27.773Z,15.02
2017-04-27T23:35:55.713Z,16.92
2017-04-27T23:38:24.563Z,16.10
2017-04-27T23:40:52.948Z,16.13
2017-04-27T23:43:21.320Z,15.95
2017-04-27T23:45:49.304Z,18.23
2017-04-27T23:48:17.853Z,17.68
2017-04-27T23:50:45.793Z,16.52
2017-04-27T23:53:15.701Z,15.87
2017-04-27T23:55:44.775Z,15.75
2017-04-27T23:58:13.212Z,15.80
